createdAt,value
2022-09-16T00:00:52.404Z,2.20
2022-09-16T00:01:54.005Z,2.22
2022-09-16T00:02:57.103Z,2.42
2022-09-16T00:03:58.848Z,2.65
2022-09-16T00:05:00.365Z,2.22
2022-09-16T00:06:01.873Z,2.42
2022-09-16T00:07:05.120Z,2.28
2022-09-16T00:08:06.970Z,2.20
2022-09-16T00:09:09.732Z,2.80
2022-09-16T00:10:12.255Z,1.95
2022-09-16T00:11:14.772Z,2.45
2022-09-16T00:12:16.414Z,2.33
2022-09-16T00:13:18.958Z,2.47
2022-09-16T00:14:20.508Z,2.20
2022-09-16T00:15:22.073Z,1.98
2022-09-16T00:16:26.411Z,1.95
2022-09-16T00:17:30.055Z,2.03
2022-09-16T00:18:31.554Z,2.60
2022-09-16T00:19:33.100Z,2.28
2022-09-16T00:20:34.663Z,2.30
2022-09-16T00:21:36.284Z,2.55
2022-09-16T00:22:38.082Z,2.45
2022-09-16T00:23:39.756Z,2.47
2022-09-16T00:24:41.260Z,2.38
2022-09-16T00:25:42.868Z,2.22
2022-09-16T00:26:44.587Z,2.13
2022-09-16T00:27:49.195Z,2.38
2022-09-16T00:28:50.986Z,2.33
2022-09-16T00:29:52.765Z,2.35
2022-09-16T00:30:54.379Z,2.30
2022-09-16T00:31:56.121Z,2.22
2022-09-16T00:32:57.680Z,2.38
2022-09-16T00:33:59.162Z,2.20
2022-09-16T00:35:00.711Z,2.75
2022-09-16T00:36:09.712Z,2.47
2022-09-16T00:37:11.271Z,2.13
2022-09-16T00:38:13.213Z,2.30
2022-09-16T00:39:14.785Z,2.35
2022-09-16T00:40:16.427Z,2.05
2022-09-16T00:41:20.724Z,2.22
2022-09-16T00:42:22.215Z,2.10
2022-09-16T00:43:23.820Z,2.58
2022-09-16T00:44:59.036Z,2.00
2022-09-16T00:46:05.205Z,2.30
2022-09-16T00:47:06.818Z,2.00
2022-09-16T00:48:12.678Z,2.40
2022-09-16T00:49:31.237Z,2.63
2022-09-16T00:50:51.265Z,2.47
2022-09-16T00:51:57.418Z,2.03
2022-09-16T00:53:00.374Z,2.35
2022-09-16T00:54:04.903Z,2.70
2022-09-16T00:55:09.937Z,2.47
2022-09-16T00:56:14.682Z,2.10
2022-09-16T00:57:16.940Z,2.53
2022-09-16T00:58:28.116Z,2.35
2022-09-16T00:59:37.096Z,2.78
2022-09-16T01:00:38.923Z,2.67
2022-09-16T01:01:43.684Z,2.30
2022-09-16T01:02:47.551Z,2.58
2022-09-16T01:03:54.165Z,2.50
2022-09-16T01:05:04.987Z,2.60
2022-09-16T01:06:06.873Z,2.00
2022-09-16T01:07:08.544Z,2.30
2022-09-16T01:08:10.130Z,3.25
2022-09-16T01:09:12.474Z,2.40
2022-09-16T01:10:16.278Z,2.53
2022-09-16T01:11:17.839Z,2.33
2022-09-16T01:12:19.394Z,2.20
2022-09-16T01:13:20.931Z,2.10
2022-09-16T01:14:43.782Z,2.63
2022-09-16T01:15:55.066Z,2.58
2022-09-16T01:17:12.912Z,2.50
2022-09-16T01:18:36.178Z,2.08
2022-09-16T01:19:43.788Z,2.38
2022-09-16T01:21:26.853Z,2.28
2022-09-16T01:22:34.448Z,2.85
2022-09-16T01:24:13.749Z,2.15
2022-09-16T01:25:28.449Z,2.10
2022-09-16T01:27:00.801Z,2.60
2022-09-16T01:28:54.770Z,2.50
2022-09-16T01:30:06.762Z,2.85
2022-09-16T01:31:20.362Z,2.40
2022-09-16T01:32:53.772Z,2.28
2022-09-16T01:34:12.985Z,2.25
2022-09-16T01:35:38.016Z,2.80
2022-09-16T01:36:58.606Z,2.70
2022-09-16T01:38:09.220Z,2.65
2022-09-16T01:39:10.730Z,2.80
2022-09-16T01:40:49.384Z,2.30
2022-09-16T01:41:58.599Z,2.40
2022-09-16T01:43:19.992Z,2.17
2022-09-16T01:44:29.481Z,2.38
2022-09-16T01:45:44.027Z,2.17
2022-09-16T01:46:53.674Z,2.58
2022-09-16T01:48:23.358Z,2.30
2022-09-16T01:49:41.704Z,2.10
2022-09-16T01:51:06.613Z,2.30
2022-09-16T01:52:08.069Z,2.80
2022-09-16T01:53:15.554Z,2.20
2022-09-16T01:54:34.113Z,2.17
2022-09-16T01:55:46.943Z,2.25
2022-09-16T01:57:17.536Z,2.33
2022-09-16T01:58:23.778Z,2.15
2022-09-16T01:59:34.404Z,2.72
2022-09-16T02:00:40.472Z,2.67
2022-09-16T02:02:06.429Z,2.42
2022-09-16T02:03:12.495Z,2.53
2022-09-16T02:04:20.677Z,2.80
2022-09-16T02:05:28.241Z,2.40
2022-09-16T02:06:31.755Z,2.28
2022-09-16T02:07:38.488Z,2.53
2022-09-16T02:08:57.089Z,2.70
2022-09-16T02:10:06.644Z,2.45
2022-09-16T02:11:12.476Z,2.45
2022-09-16T02:12:21.566Z,2.28
2022-09-16T02:13:40.208Z,2.17
2022-09-16T02:14:45.891Z,2.58
2022-09-16T02:15:51.613Z,2.33
2022-09-16T02:16:59.445Z,2.50
2022-09-16T02:18:11.034Z,2.28
2022-09-16T02:19:17.505Z,2.35
2022-09-16T02:20:25.875Z,2.30
2022-09-16T02:21:29.905Z,2.30
2022-09-16T02:22:42.071Z,2.22
2022-09-16T02:23:55.029Z,2.40
2022-09-16T02:25:00.094Z,2.28
2022-09-16T02:26:05.578Z,2.90
2022-09-16T02:27:13.394Z,2.55
2022-09-16T02:28:22.640Z,2.60
2022-09-16T02:29:29.028Z,2.38
2022-09-16T02:30:31.749Z,2.40
2022-09-16T02:31:37.593Z,2.38
2022-09-16T02:32:43.625Z,2.30
2022-09-16T02:33:49.320Z,2.20
2022-09-16T02:34:54.631Z,2.65
2022-09-16T02:35:56.770Z,2.63
2022-09-16T02:37:01.393Z,2.50
2022-09-16T02:38:17.999Z,2.72
2022-09-16T02:39:24.738Z,2.85
2022-09-16T02:40:38.646Z,3.10
2022-09-16T02:41:41.593Z,2.55
2022-09-16T02:42:43.264Z,2.90
2022-09-16T02:43:45.974Z,2.72
2022-09-16T02:44:47.656Z,2.63
2022-09-16T02:46:18.154Z,2.70
2022-09-16T02:47:29.511Z,2.53
2022-09-16T02:48:58.714Z,2.70
2022-09-16T02:50:15.741Z,2.55
2022-09-16T02:51:42.074Z,2.63
2022-09-16T02:52:46.435Z,2.85
2022-09-16T02:54:29.050Z,2.90
2022-09-16T02:56:03.010Z,2.55
2022-09-16T02:57:05.133Z,3.00
2022-09-16T02:58:07.391Z,3.20
2022-09-16T02:59:12.724Z,2.63
2022-09-16T03:00:14.268Z,2.97
2022-09-16T03:01:17.994Z,2.58
2022-09-16T03:02:19.882Z,2.78
2022-09-16T03:03:21.647Z,2.67
2022-09-16T03:04:23.273Z,2.83
2022-09-16T03:05:29.582Z,2.65
2022-09-16T03:06:36.032Z,2.70
2022-09-16T03:07:41.347Z,2.58
2022-09-16T03:08:44.486Z,2.85
2022-09-16T03:09:49.217Z,2.42
2022-09-16T03:10:53.048Z,2.95
2022-09-16T03:12:25.246Z,2.67
2022-09-16T03:13:44.311Z,2.63
2022-09-16T03:14:54.290Z,2.60
2022-09-16T03:16:18.091Z,3.08
2022-09-16T03:17:47.344Z,2.60
2022-09-16T03:18:51.901Z,2.70
2022-09-16T03:20:13.735Z,3.42
2022-09-16T03:21:21.500Z,2.53
2022-09-16T03:23:04.008Z,3.30
2022-09-16T03:24:25.978Z,3.72
2022-09-16T03:25:43.322Z,2.85
2022-09-16T03:26:53.910Z,2.75
2022-09-16T03:28:02.752Z,2.95
2022-09-16T03:29:30.655Z,2.50
2022-09-16T03:30:34.810Z,2.67
2022-09-16T03:31:46.872Z,3.22
2022-09-16T03:33:05.663Z,2.80
2022-09-16T03:34:10.709Z,2.75
2022-09-16T03:35:20.445Z,2.85
2022-09-16T03:36:34.825Z,2.92
2022-09-16T03:37:38.461Z,3.53
2022-09-16T03:38:42.378Z,2.67
2022-09-16T03:39:50.645Z,3.30
2022-09-16T03:40:53.249Z,3.00
2022-09-16T03:41:55.639Z,3.03
2022-09-16T03:42:58.017Z,2.80
2022-09-16T03:44:03.979Z,2.70
2022-09-16T03:45:07.000Z,3.08
2022-09-16T03:46:12.379Z,3.45
2022-09-16T03:47:14.547Z,2.90
2022-09-16T03:48:16.074Z,2.88
2022-09-16T03:49:17.611Z,3.03
2022-09-16T03:50:21.863Z,2.83
2022-09-16T03:51:24.412Z,3.08
2022-09-16T03:52:25.944Z,2.95
2022-09-16T03:53:27.455Z,2.72
2022-09-16T03:54:28.984Z,3.13
2022-09-16T03:55:30.747Z,2.70
2022-09-16T03:56:32.278Z,2.67
2022-09-16T03:57:34.307Z,2.80
2022-09-16T03:58:35.907Z,3.08
2022-09-16T03:59:37.427Z,2.78
2022-09-16T04:00:38.946Z,3.05
2022-09-16T04:01:40.627Z,2.90
2022-09-16T04:02:42.185Z,2.72
2022-09-16T04:03:43.782Z,3.47
2022-09-16T04:04:45.540Z,3.25
2022-09-16T04:05:53.338Z,2.50
2022-09-16T04:06:54.916Z,3.00
2022-09-16T04:07:56.509Z,2.75
2022-09-16T04:08:59.247Z,2.83
2022-09-16T04:10:02.000Z,3.33
2022-09-16T04:11:05.627Z,2.80
2022-09-16T04:12:07.642Z,3.38
2022-09-16T04:13:09.842Z,3.20
2022-09-16T04:14:11.521Z,3.03
2022-09-16T04:15:13.451Z,3.33
2022-09-16T04:16:21.357Z,3.17
2022-09-16T04:17:24.032Z,3.22
2022-09-16T04:18:26.116Z,3.30
2022-09-16T04:19:27.763Z,3.13
2022-09-16T04:20:29.292Z,2.97
2022-09-16T04:21:30.844Z,3.45
2022-09-16T04:22:32.379Z,3.40
2022-09-16T04:23:34.442Z,3.47
2022-09-16T04:24:36.135Z,3.33
2022-09-16T04:25:37.696Z,3.55
2022-09-16T04:26:39.190Z,3.25
2022-09-16T04:27:40.762Z,3.40
2022-09-16T04:28:42.356Z,3.40
2022-09-16T04:29:43.883Z,3.28
2022-09-16T04:30:45.461Z,3.55
2022-09-16T04:31:47.033Z,3.35
2022-09-16T04:32:53.700Z,3.40
2022-09-16T04:33:55.473Z,3.30
2022-09-16T04:34:56.977Z,3.65
2022-09-16T04:36:13.140Z,3.78
2022-09-16T04:37:14.774Z,3.90
2022-09-16T04:38:16.308Z,3.13
2022-09-16T04:39:17.948Z,3.33
2022-09-16T04:40:19.511Z,3.83
2022-09-16T04:41:23.320Z,3.60
2022-09-16T04:42:24.845Z,3.20
2022-09-16T04:43:26.411Z,3.97
2022-09-16T04:44:30.161Z,3.20
2022-09-16T04:45:31.676Z,3.50
2022-09-16T04:46:33.461Z,3.28
2022-09-16T04:47:35.127Z,3.00
2022-09-16T04:48:37.429Z,3.15
2022-09-16T04:49:38.959Z,3.30
2022-09-16T04:50:40.507Z,2.85
2022-09-16T04:51:42.053Z,3.20
2022-09-16T04:52:44.081Z,3.17
2022-09-16T04:53:47.115Z,3.30
2022-09-16T04:54:48.740Z,2.75
2022-09-16T04:55:50.297Z,3.60
2022-09-16T04:56:51.829Z,3.78
2022-09-16T04:57:53.423Z,3.70
2022-09-16T04:58:58.823Z,4.35
2022-09-16T05:00:00.462Z,4.10
2022-09-16T05:01:12.998Z,3.63
2022-09-16T05:02:14.545Z,3.20
2022-09-16T05:03:16.068Z,3.30
2022-09-16T05:04:17.774Z,4.18
2022-09-16T05:05:19.358Z,4.40
2022-09-16T05:06:24.015Z,4.10
2022-09-16T05:07:25.559Z,4.57
2022-09-16T05:08:27.078Z,4.10
2022-09-16T05:09:28.736Z,3.22
2022-09-16T05:10:30.386Z,3.35
2022-09-16T05:11:37.249Z,3.55
2022-09-16T05:12:39.063Z,3.30
2022-09-16T05:13:41.358Z,3.38
2022-09-16T05:14:42.965Z,3.20
2022-09-16T05:15:47.611Z,3.85
2022-09-16T05:16:52.532Z,3.28
2022-09-16T05:17:54.051Z,3.65
2022-09-16T05:18:57.601Z,3.20
2022-09-16T05:19:59.297Z,3.50
2022-09-16T05:21:02.916Z,3.35
2022-09-16T05:22:07.185Z,3.42
2022-09-16T05:23:08.864Z,3.80
2022-09-16T05:24:12.350Z,3.83
2022-09-16T05:25:13.927Z,3.20
2022-09-16T05:26:24.548Z,4.50
2022-09-16T05:27:28.042Z,3.85
2022-09-16T05:28:29.957Z,3.10
2022-09-16T05:29:31.492Z,4.00
2022-09-16T05:30:33.019Z,3.22
2022-09-16T05:31:39.861Z,3.55
2022-09-16T05:32:41.404Z,3.55
2022-09-16T05:33:45.516Z,3.58
2022-09-16T05:34:47.096Z,3.40
2022-09-16T05:35:48.608Z,3.70
2022-09-16T05:36:53.832Z,3.72
2022-09-16T05:37:55.333Z,3.20
2022-09-16T05:39:21.655Z,3.33
2022-09-16T05:40:18.848Z,2.92
2022-09-16T05:41:20.638Z,3.90
2022-09-16T05:42:22.231Z,3.33
2022-09-16T05:43:23.735Z,3.40
2022-09-16T05:44:27.189Z,3.15
2022-09-16T05:45:32.222Z,3.33
2022-09-16T05:46:35.080Z,3.20
2022-09-16T05:47:36.597Z,3.47
2022-09-16T05:48:38.103Z,3.30
2022-09-16T05:49:39.653Z,2.80
2022-09-16T05:50:41.240Z,3.83
2022-09-16T05:51:42.765Z,3.63
2022-09-16T05:52:44.283Z,3.35
2022-09-16T05:53:46.898Z,3.05
2022-09-16T05:54:48.468Z,3.28
2022-09-16T05:56:02.093Z,4.30
2022-09-16T05:57:07.118Z,3.17
2022-09-16T05:58:09.000Z,3.40
2022-09-16T05:59:12.170Z,3.22
2022-09-16T06:00:14.640Z,3.20
2022-09-16T06:01:18.661Z,3.15
2022-09-16T06:02:20.310Z,3.40
2022-09-16T06:03:21.905Z,2.95
2022-09-16T06:04:23.443Z,2.95
2022-09-16T06:05:24.983Z,2.67
2022-09-16T06:06:40.803Z,3.05
2022-09-16T06:07:42.316Z,3.15
2022-09-16T06:08:43.896Z,2.92
2022-09-16T06:09:45.799Z,2.72
2022-09-16T06:10:47.432Z,2.97
2022-09-16T06:11:51.770Z,2.97
2022-09-16T06:12:53.276Z,2.95
2022-09-16T06:14:01.511Z,2.97
2022-09-16T06:15:03.053Z,3.75
2022-09-16T06:16:06.677Z,3.30
2022-09-16T06:17:08.237Z,2.90
2022-09-16T06:18:11.736Z,3.28
2022-09-16T06:19:15.938Z,3.17
2022-09-16T06:20:17.451Z,2.80
2022-09-16T06:21:18.976Z,3.00
2022-09-16T06:22:20.573Z,2.90
2022-09-16T06:23:22.789Z,2.90
2022-09-16T06:24:24.489Z,2.67
2022-09-16T06:25:26.069Z,3.33
2022-09-16T06:26:28.499Z,3.38
2022-09-16T06:27:31.884Z,2.88
2022-09-16T06:28:33.870Z,3.35
2022-09-16T06:29:35.388Z,3.20
2022-09-16T06:30:38.080Z,3.00
2022-09-16T06:31:40.531Z,3.15
2022-09-16T06:32:42.053Z,3.20
2022-09-16T06:33:44.626Z,3.00
2022-09-16T06:34:46.187Z,2.92
2022-09-16T06:35:47.792Z,4.22
2022-09-16T06:36:49.330Z,2.95
2022-09-16T06:37:50.904Z,4.13
2022-09-16T06:38:52.484Z,4.22
2022-09-16T06:39:54.081Z,3.72
2022-09-16T06:40:59.668Z,4.85
2022-09-16T06:42:01.240Z,4.32
2022-09-16T06:43:02.783Z,3.00
2022-09-16T06:44:04.320Z,3.65
2022-09-16T06:45:06.733Z,3.20
2022-09-16T06:46:13.680Z,3.25
2022-09-16T06:47:15.543Z,3.08
2022-09-16T06:48:17.063Z,3.42
2022-09-16T06:49:18.548Z,3.00
2022-09-16T06:50:20.066Z,2.92
2022-09-16T06:51:24.248Z,3.08
2022-09-16T06:52:26.206Z,2.70
2022-09-16T06:53:28.652Z,3.25
2022-09-16T06:54:30.167Z,3.30
2022-09-16T06:55:31.693Z,3.97
2022-09-16T06:56:36.144Z,2.78
2022-09-16T06:57:37.787Z,2.75
2022-09-16T06:58:42.262Z,2.75
2022-09-16T06:59:43.814Z,2.63
2022-09-16T07:00:45.576Z,2.90
2022-09-16T07:01:47.206Z,2.58
2022-09-16T07:02:48.851Z,2.38
2022-09-16T07:03:52.470Z,2.60
2022-09-16T07:04:53.985Z,2.78
2022-09-16T07:06:03.131Z,2.60
2022-09-16T07:07:09.692Z,2.95
2022-09-16T07:08:12.051Z,3.13
2022-09-16T07:09:13.634Z,2.92
2022-09-16T07:10:15.258Z,2.55
2022-09-16T07:11:19.477Z,2.75
2022-09-16T07:12:20.980Z,2.95
2022-09-16T07:13:22.987Z,3.08
2022-09-16T07:14:26.438Z,3.10
2022-09-16T07:15:28.016Z,2.75
2022-09-16T07:16:29.630Z,3.55
2022-09-16T07:17:31.315Z,2.67
2022-09-16T07:18:33.121Z,2.92
2022-09-16T07:19:34.749Z,3.58
2022-09-16T07:20:36.272Z,3.08
2022-09-16T07:21:38.015Z,3.10
2022-09-16T07:22:39.770Z,2.83
2022-09-16T07:23:42.499Z,3.10
2022-09-16T07:24:44.128Z,3.05
2022-09-16T07:25:46.423Z,3.00
2022-09-16T07:26:48.034Z,3.22
2022-09-16T07:27:49.850Z,2.45
2022-09-16T07:28:51.424Z,3.13
2022-09-16T07:29:54.225Z,2.95
2022-09-16T07:30:55.794Z,2.90
2022-09-16T07:31:57.402Z,3.40
2022-09-16T07:32:58.986Z,2.92
2022-09-16T07:34:04.394Z,3.08
2022-09-16T07:35:06.602Z,3.42
2022-09-16T07:36:09.917Z,3.63
2022-09-16T07:37:12.790Z,3.63
2022-09-16T07:38:14.310Z,3.78
2022-09-16T07:39:17.746Z,3.13
2022-09-16T07:40:19.484Z,3.47
2022-09-16T07:41:23.563Z,2.83
2022-09-16T07:42:25.058Z,3.17
2022-09-16T07:43:27.666Z,2.95
2022-09-16T07:44:29.414Z,3.38
2022-09-16T07:45:31.000Z,3.40
2022-09-16T07:46:35.433Z,3.17
2022-09-16T07:47:36.953Z,3.88
2022-09-16T07:48:39.385Z,3.20
2022-09-16T07:49:40.953Z,3.38
2022-09-16T07:50:42.642Z,3.20
2022-09-16T07:51:44.687Z,3.63
2022-09-16T07:52:46.280Z,3.45
2022-09-16T07:53:48.581Z,3.08
2022-09-16T07:54:50.597Z,2.90
2022-09-16T07:55:52.133Z,3.08
2022-09-16T07:56:53.721Z,3.30
2022-09-16T07:57:55.320Z,3.10
2022-09-16T07:58:57.636Z,2.80
2022-09-16T07:59:59.721Z,3.10
2022-09-16T08:01:04.843Z,2.90
2022-09-16T08:02:07.031Z,3.58
2022-09-16T08:03:08.737Z,3.13
2022-09-16T08:04:10.814Z,3.20
2022-09-16T08:05:13.347Z,3.30
2022-09-16T08:06:20.964Z,3.92
2022-09-16T08:07:22.487Z,3.70
2022-09-16T08:08:24.131Z,3.38
2022-09-16T08:09:38.821Z,3.90
2022-09-16T08:10:43.409Z,3.95
2022-09-16T08:11:45.129Z,3.47
2022-09-16T08:12:48.431Z,3.40
2022-09-16T08:13:50.373Z,3.63
2022-09-16T08:14:51.977Z,4.00
2022-09-16T08:15:54.489Z,3.70
2022-09-16T08:16:56.280Z,4.00
2022-09-16T08:17:57.963Z,3.42
2022-09-16T08:19:00.071Z,3.25
2022-09-16T08:20:06.007Z,3.55
2022-09-16T08:21:09.227Z,2.90
2022-09-16T08:22:10.804Z,3.00
2022-09-16T08:23:14.282Z,3.33
2022-09-16T08:24:16.563Z,3.17
2022-09-16T08:25:18.112Z,3.53
2022-09-16T08:26:20.756Z,3.33
2022-09-16T08:27:22.459Z,3.17
2022-09-16T08:28:24.305Z,3.22
2022-09-16T08:29:26.148Z,3.50
2022-09-16T08:30:27.732Z,3.28
2022-09-16T08:31:29.450Z,3.33
2022-09-16T08:32:31.385Z,3.30
2022-09-16T08:33:33.052Z,3.25
2022-09-16T08:34:34.778Z,3.55
2022-09-16T08:35:36.625Z,3.60
2022-09-16T08:36:38.179Z,3.47
2022-09-16T08:37:40.257Z,3.20
2022-09-16T08:38:43.870Z,2.97
2022-09-16T08:39:48.379Z,3.47
2022-09-16T08:40:50.492Z,3.28
2022-09-16T08:42:23.287Z,2.95
2022-09-16T08:43:38.709Z,3.10
2022-09-16T08:45:00.413Z,3.30
2022-09-16T08:46:10.291Z,3.63
2022-09-16T08:47:32.228Z,3.25
2022-09-16T08:48:58.738Z,3.28
2022-09-16T08:50:04.441Z,3.40
2022-09-16T08:51:11.957Z,3.17
2022-09-16T08:52:37.443Z,3.10
2022-09-16T08:53:43.710Z,3.10
2022-09-16T08:54:50.566Z,3.03
2022-09-16T08:55:53.176Z,3.33
2022-09-16T08:57:00.729Z,3.00
2022-09-16T08:58:14.833Z,2.90
2022-09-16T08:59:23.821Z,3.25
2022-09-16T09:00:25.717Z,2.80
2022-09-16T09:01:40.349Z,3.33
2022-09-16T09:02:47.782Z,3.13
2022-09-16T09:03:49.712Z,2.97
2022-09-16T09:04:51.265Z,3.97
2022-09-16T09:05:56.195Z,2.78
2022-09-16T09:07:21.048Z,3.10
2022-09-16T09:08:54.582Z,3.88
2022-09-16T09:10:10.855Z,3.35
2022-09-16T09:11:12.522Z,2.90
2022-09-16T09:12:39.854Z,3.10
2022-09-16T09:14:07.268Z,3.00
2022-09-16T09:15:12.015Z,3.45
2022-09-16T09:16:22.410Z,2.90
2022-09-16T09:17:49.932Z,2.67
2022-09-16T09:19:03.958Z,2.72
2022-09-16T09:20:37.744Z,2.45
2022-09-16T09:21:52.057Z,2.90
2022-09-16T09:23:19.988Z,2.60
2022-09-16T09:24:52.390Z,2.65
2022-09-16T09:26:04.236Z,2.85
2022-09-16T09:27:16.441Z,2.65
2022-09-16T09:28:24.391Z,2.55
2022-09-16T09:30:03.598Z,2.83
2022-09-16T09:31:17.019Z,2.95
2022-09-16T09:32:46.344Z,2.55
2022-09-16T09:33:56.910Z,2.85
2022-09-16T09:34:58.364Z,3.28
2022-09-16T09:36:12.040Z,3.00
2022-09-16T09:37:22.682Z,2.63
2022-09-16T09:38:27.425Z,2.47
2022-09-16T09:39:56.161Z,2.60
2022-09-16T09:41:06.124Z,2.28
2022-09-16T09:42:21.254Z,2.53
2022-09-16T09:43:28.515Z,3.10
2022-09-16T09:44:48.191Z,2.25
2022-09-16T09:45:59.036Z,2.33
2022-09-16T09:47:11.472Z,2.40
2022-09-16T09:48:35.148Z,2.33
2022-09-16T09:49:46.687Z,3.42
2022-09-16T09:50:50.417Z,2.53
2022-09-16T09:52:00.156Z,2.70
2022-09-16T09:53:07.320Z,2.33
2022-09-16T09:54:26.354Z,2.50
2022-09-16T09:55:32.919Z,2.28
2022-09-16T09:56:40.221Z,3.10
2022-09-16T09:58:06.429Z,2.60
2022-09-16T09:59:26.434Z,2.63
2022-09-16T10:00:28.206Z,1.95
2022-09-16T10:01:30.113Z,2.53
2022-09-16T10:02:31.742Z,2.70
2022-09-16T10:03:33.558Z,2.28
2022-09-16T10:04:39.013Z,2.30
2022-09-16T10:05:41.332Z,2.38
2022-09-16T10:06:45.946Z,2.65
2022-09-16T10:07:48.260Z,2.50
2022-09-16T10:08:52.181Z,2.30
2022-09-16T10:10:12.635Z,2.50
2022-09-16T10:11:22.108Z,2.47
2022-09-16T10:12:32.929Z,2.63
2022-09-16T10:13:34.549Z,2.42
2022-09-16T10:14:38.304Z,2.30
2022-09-16T10:15:40.492Z,2.13
2022-09-16T10:16:50.062Z,2.25
2022-09-16T10:17:53.057Z,2.20
2022-09-16T10:19:03.592Z,2.45
2022-09-16T10:20:23.865Z,2.35
2022-09-16T10:21:25.918Z,2.30
2022-09-16T10:22:30.342Z,1.92
2022-09-16T10:23:33.180Z,1.90
2022-09-16T10:24:36.265Z,2.35
2022-09-16T10:25:38.214Z,2.58
2022-09-16T10:26:41.169Z,2.38
2022-09-16T10:27:42.741Z,2.83
2022-09-16T10:29:15.440Z,2.55
2022-09-16T10:30:19.557Z,2.63
2022-09-16T10:31:22.590Z,2.33
2022-09-16T10:32:24.386Z,2.35
2022-09-16T10:33:34.184Z,1.73
2022-09-16T10:34:41.958Z,3.40
2022-09-16T10:35:55.196Z,2.35
2022-09-16T10:37:16.471Z,2.25
2022-09-16T10:38:20.441Z,2.38
2022-09-16T10:39:25.254Z,2.45
2022-09-16T10:40:27.813Z,2.65
2022-09-16T10:41:34.347Z,2.38
2022-09-16T10:42:36.064Z,2.15
2022-09-16T10:43:39.739Z,2.25
2022-09-16T10:44:42.145Z,2.60
2022-09-16T10:45:47.737Z,2.47
2022-09-16T10:46:55.476Z,2.30
2022-09-16T10:48:03.396Z,2.53
2022-09-16T10:49:12.763Z,2.45
2022-09-16T10:50:20.145Z,2.00
2022-09-16T10:51:33.428Z,2.53
2022-09-16T10:52:44.286Z,2.85
2022-09-16T10:53:51.953Z,2.80
2022-09-16T10:54:54.698Z,2.33
2022-09-16T10:55:58.202Z,2.67
2022-09-16T10:56:59.737Z,2.30
2022-09-16T10:58:17.387Z,2.63
2022-09-16T10:59:18.984Z,2.25
2022-09-16T11:00:25.066Z,2.22
2022-09-16T11:01:58.923Z,2.10
2022-09-16T11:03:12.696Z,2.58
2022-09-16T11:04:17.243Z,2.85
2022-09-16T11:05:29.125Z,2.88
2022-09-16T11:06:56.966Z,3.20
2022-09-16T11:08:26.018Z,2.50
2022-09-16T11:10:14.985Z,2.50
2022-09-16T11:11:39.492Z,2.60
2022-09-16T11:12:49.997Z,3.13
2022-09-16T11:14:03.748Z,2.72
2022-09-16T11:15:21.373Z,2.75
2022-09-16T11:16:44.211Z,2.70
2022-09-16T11:18:16.504Z,2.63
2022-09-16T11:19:45.925Z,2.70
2022-09-16T11:21:16.697Z,2.63
2022-09-16T11:22:47.642Z,2.42
2022-09-16T11:24:22.073Z,2.70
2022-09-16T11:25:53.221Z,2.28
2022-09-16T11:26:54.685Z,2.35
2022-09-16T11:28:17.083Z,2.30
2022-09-16T11:29:36.943Z,2.22
2022-09-16T11:30:54.920Z,2.20
2022-09-16T11:32:21.854Z,2.38
2022-09-16T11:33:42.041Z,1.88
2022-09-16T11:34:49.662Z,2.03
2022-09-16T11:36:00.294Z,1.85
2022-09-16T11:37:13.857Z,2.08
2022-09-16T11:38:43.800Z,2.33
2022-09-16T11:40:12.019Z,2.30
2022-09-16T11:41:41.055Z,2.30
2022-09-16T11:42:50.059Z,2.38
2022-09-16T11:44:26.674Z,2.50
2022-09-16T11:45:40.433Z,3.00
2022-09-16T11:46:51.035Z,3.20
2022-09-16T11:48:17.056Z,2.83
2022-09-16T11:49:21.459Z,3.05
2022-09-16T11:50:34.908Z,2.72
2022-09-16T11:52:01.373Z,2.90
2022-09-16T11:53:05.323Z,2.65
2022-09-16T11:54:48.790Z,2.97
2022-09-16T11:56:25.444Z,3.00
2022-09-16T11:57:35.487Z,3.00
2022-09-16T11:58:43.155Z,2.83
2022-09-16T12:00:00.146Z,2.50
2022-09-16T12:01:23.447Z,2.15
2022-09-16T12:02:31.021Z,1.92
2022-09-16T12:03:39.792Z,2.33
2022-09-16T12:04:53.843Z,2.00
2022-09-16T12:06:05.518Z,2.10
2022-09-16T12:07:30.405Z,2.05
2022-09-16T12:08:54.564Z,2.20
2022-09-16T12:10:06.439Z,1.90
2022-09-16T12:11:27.303Z,2.20
2022-09-16T12:12:38.881Z,2.08
2022-09-16T12:13:44.623Z,1.90
2022-09-16T12:14:54.974Z,1.98
2022-09-16T12:16:02.419Z,1.90
2022-09-16T12:17:17.112Z,1.95
2022-09-16T12:18:26.734Z,2.00
2022-09-16T12:19:34.029Z,1.60
2022-09-16T12:20:42.876Z,1.92
2022-09-16T12:21:57.653Z,1.48
2022-09-16T12:23:24.201Z,2.00
2022-09-16T12:24:48.344Z,1.98
2022-09-16T12:26:12.301Z,1.85
2022-09-16T12:27:44.427Z,1.88
2022-09-16T12:29:18.963Z,1.65
2022-09-16T12:30:25.662Z,1.75
2022-09-16T12:32:00.265Z,1.70
2022-09-16T12:33:17.293Z,2.17
2022-09-16T12:34:39.705Z,1.40
2022-09-16T12:36:03.984Z,1.77
2022-09-16T12:37:47.286Z,1.67
2022-09-16T12:38:55.595Z,1.95
2022-09-16T12:39:57.373Z,1.80
2022-09-16T12:41:17.521Z,1.77
2022-09-16T12:42:48.722Z,1.80
2022-09-16T12:44:23.253Z,1.70
2022-09-16T12:45:49.525Z,1.63
2022-09-16T12:47:11.881Z,1.80
2022-09-16T12:48:35.060Z,1.80
2022-09-16T12:50:01.219Z,1.88
2022-09-16T12:51:10.739Z,1.58
2022-09-16T12:52:21.074Z,1.60
2022-09-16T12:53:34.361Z,1.60
2022-09-16T12:55:07.628Z,1.60
2022-09-16T12:56:14.266Z,1.90
2022-09-16T12:57:41.123Z,1.80
2022-09-16T12:59:07.098Z,1.73
2022-09-16T13:00:14.713Z,1.65
2022-09-16T13:01:26.780Z,1.55
2022-09-16T13:02:36.279Z,1.75
2022-09-16T13:03:42.585Z,1.98
2022-09-16T13:04:49.536Z,2.10
2022-09-16T13:05:53.860Z,1.63
2022-09-16T13:06:59.847Z,1.80
2022-09-16T13:08:08.109Z,1.58
2022-09-16T13:09:22.411Z,1.75
2022-09-16T13:10:46.747Z,1.60
2022-09-16T13:12:36.662Z,1.65
2022-09-16T13:13:43.091Z,1.60
2022-09-16T13:14:55.064Z,1.73
2022-09-16T13:15:59.096Z,1.77
2022-09-16T13:17:02.506Z,1.77
2022-09-16T13:18:16.620Z,1.98
2022-09-16T13:19:23.838Z,1.48
2022-09-16T13:20:36.753Z,1.20
2022-09-16T13:21:47.516Z,1.75
2022-09-16T13:22:55.143Z,1.80
2022-09-16T13:24:25.347Z,1.88
2022-09-16T13:25:33.265Z,1.45
2022-09-16T13:26:43.089Z,1.90
2022-09-16T13:27:58.987Z,2.15
2022-09-16T13:29:00.519Z,1.85
2022-09-16T13:30:08.256Z,1.45
2022-09-16T13:31:12.833Z,2.05
2022-09-16T13:32:47.875Z,1.55
2022-09-16T13:34:04.177Z,1.40
2022-09-16T13:35:21.277Z,1.17
2022-09-16T13:36:22.733Z,1.02
2022-09-16T13:37:26.562Z,1.45
2022-09-16T13:38:54.561Z,1.20
2022-09-16T13:39:56.200Z,1.15
2022-09-16T13:41:00.262Z,1.45
2022-09-16T13:42:20.638Z,1.48
2022-09-16T13:43:43.757Z,1.40
2022-09-16T13:44:45.289Z,1.58
2022-09-16T13:45:46.870Z,1.40
2022-09-16T13:46:48.634Z,1.98
2022-09-16T13:47:51.219Z,1.63
2022-09-16T13:49:03.669Z,1.50
2022-09-16T13:50:16.204Z,1.40
2022-09-16T13:51:22.157Z,1.38
2022-09-16T13:52:35.020Z,1.60
2022-09-16T13:53:42.889Z,1.50
2022-09-16T13:55:09.939Z,1.60
2022-09-16T13:56:43.552Z,1.83
2022-09-16T13:57:53.920Z,1.77
2022-09-16T13:59:17.252Z,1.52
2022-09-16T14:00:37.798Z,1.70
2022-09-16T14:02:15.686Z,1.60
2022-09-16T14:03:22.991Z,1.40
2022-09-16T14:04:48.853Z,1.48
2022-09-16T14:06:04.265Z,1.40
2022-09-16T14:07:26.831Z,1.60
2022-09-16T14:08:28.488Z,1.83
2022-09-16T14:09:58.796Z,1.88
2022-09-16T14:11:26.384Z,1.83
2022-09-16T14:12:41.622Z,1.80
2022-09-16T14:13:48.825Z,1.65
2022-09-16T14:14:50.829Z,1.80
2022-09-16T14:15:57.130Z,1.70
2022-09-16T14:17:03.477Z,2.08
2022-09-16T14:18:06.991Z,1.50
2022-09-16T14:19:20.577Z,1.55
2022-09-16T14:20:24.593Z,1.40
2022-09-16T14:21:26.955Z,1.88
2022-09-16T14:22:29.000Z,1.70
2022-09-16T14:23:32.601Z,1.92
2022-09-16T14:24:37.274Z,1.70
2022-09-16T14:25:39.108Z,2.05
2022-09-16T14:26:53.637Z,2.00
2022-09-16T14:28:18.441Z,1.80
2022-09-16T14:29:21.122Z,2.20
2022-09-16T14:30:22.736Z,2.03
2022-09-16T14:31:29.521Z,1.80
2022-09-16T14:32:34.605Z,1.63
2022-09-16T14:33:43.933Z,1.90
2022-09-16T14:34:45.664Z,1.60
2022-09-16T14:35:49.052Z,2.08
2022-09-16T14:36:50.764Z,1.80
2022-09-16T14:37:57.404Z,1.98
2022-09-16T14:39:04.274Z,1.98
2022-09-16T14:40:13.491Z,2.08
2022-09-16T14:41:24.508Z,1.70
2022-09-16T14:42:26.167Z,2.33
2022-09-16T14:43:27.916Z,2.20
2022-09-16T14:44:40.734Z,1.90
2022-09-16T14:45:49.225Z,2.15
2022-09-16T14:47:29.381Z,2.17
2022-09-16T14:48:35.866Z,2.00
2022-09-16T14:49:38.376Z,2.10
2022-09-16T14:50:47.115Z,1.90
2022-09-16T14:51:52.233Z,2.10
2022-09-16T14:53:24.279Z,2.00
2022-09-16T14:54:29.109Z,1.90
2022-09-16T14:55:36.017Z,2.38
2022-09-16T14:56:37.543Z,2.22
2022-09-16T14:57:39.166Z,1.90
2022-09-16T14:58:40.786Z,2.03
2022-09-16T14:59:43.413Z,2.30
2022-09-16T15:01:10.475Z,2.22
2022-09-16T15:02:44.874Z,2.05
2022-09-16T15:03:57.835Z,2.28
2022-09-16T15:05:27.202Z,2.33
2022-09-16T15:06:35.766Z,1.80
2022-09-16T15:07:50.881Z,1.90
2022-09-16T15:09:26.884Z,1.77
2022-09-16T15:10:39.714Z,2.15
2022-09-16T15:11:56.385Z,1.83
2022-09-16T15:13:01.952Z,2.17
2022-09-16T15:14:07.288Z,1.50
2022-09-16T15:15:20.002Z,1.60
2022-09-16T15:16:24.457Z,1.85